Time;durP1;ratioP1;P1;durP2;ratioP2;P2;SDS_P1;SDS_P2;PMS_P1;PMS_P2;Temp;Humidity;BMP_temperature;BMP_pressure;BME280_temperature;BME280_humidity;BME280_pressure;Samples;Min_cycle;Max_cycle;Signal;HPM_P1;HPM_P2
2022/06/10 00:00:16;;;;;;;3.30;1.10;;;13.90;93.00;;;;;;5113293;28;20491;-65
2022/06/10 00:02:43;;;;;;;2.90;1.73;;;13.90;93.10;;;;;;5112902;28;20820;-65
2022/06/10 00:05:13;;;;;;;4.17;1.90;;;13.80;93.10;;;;;;5113158;28;20426;-65
2022/06/10 00:07:40;;;;;;;2.57;1.70;;;13.80;93.20;;;;;;5112793;28;20495;-65
2022/06/10 00:10:13;;;;;;;2.97;1.60;;;13.80;93.50;;;;;;5113076;28;20430;-65
2022/06/10 00:12:40;;;;;;;4.03;1.53;;;13.90;94.00;;;;;;5112719;28;20904;-64
2022/06/10 00:15:08;;;;;;;2.53;1.50;;;13.90;93.50;;;;;;5113011;28;20495;-65
2022/06/10 00:17:36;;;;;;;11.50;1.60;;;13.90;93.90;;;;;;5112598;28;20514;-65
2022/06/10 00:20:04;;;;;;;2.37;1.30;;;13.90;93.50;;;;;;5112482;28;20434;-65
2022/06/10 00:22:32;;;;;;;3.80;1.80;;;13.90;94.00;;;;;;5112831;28;20438;-64
2022/06/10 00:24:59;;;;;;;3.93;1.90;;;13.90;94.30;;;;;;5112295;28;20441;-65
2022/06/10 00:27:28;;;;;;;2.73;1.87;;;13.90;94.70;;;;;;5112948;28;20872;-64
2022/06/10 00:29:55;;;;;;;9.00;1.70;;;13.90;95.10;;;;;;5112932;28;20442;-65
2022/06/10 00:32:22;;;;;;;6.00;1.60;;;13.90;95.20;;;;;;5112363;28;20509;-65
2022/06/10 00:34:50;;;;;;;2.13;1.27;;;14.00;95.20;;;;;;5112675;28;21294;-65
2022/06/10 00:37:17;;;;;;;3.00;1.60;;;14.00;95.30;;;;;;5112476;28;20491;-64
2022/06/10 00:39:44;;;;;;;3.63;1.33;;;13.90;95.20;;;;;;5112655;28;20438;-65
2022/06/10 00:42:13;;;;;;;5.07;1.20;;;14.00;95.70;;;;;;5112736;28;20469;-65
2022/06/10 00:44:44;;;;;;;3.47;2.13;;;14.00;95.90;;;;;;5112233;28;20477;-65
2022/06/10 00:47:17;;;;;;;3.80;1.87;;;14.00;96.10;;;;;;5112657;28;20426;-65
2022/06/10 00:49:48;;;;;;;2.70;1.17;;;14.00;96.10;;;;;;5112170;28;20444;-65
2022/06/10 00:52:23;;;;;;;4.00;1.60;;;14.10;96.00;;;;;;5112254;28;20531;-64
2022/06/10 00:54:53;;;;;;;7.67;1.70;;;14.10;96.00;;;;;;5112563;28;20442;-65
2022/06/10 00:57:22;;;;;;;5.17;1.80;;;14.10;96.00;;;;;;5112132;28;20434;-65
2022/06/10 00:59:56;;;;;;;4.13;1.50;;;14.10;96.10;;;;;;5112581;28;20434;-64
2022/06/10 01:02:31;;;;;;;3.90;1.57;;;14.10;96.50;;;;;;5112045;28;20532;-67
2022/06/10 01:04:59;;;;;;;6.40;1.50;;;14.10;96.20;;;;;;5112503;28;20793;-65
2022/06/10 01:07:30;;;;;;;2.10;1.27;;;14.10;96.10;;;;;;5112148;28;20438;-64
2022/06/10 01:09:58;;;;;;;2.10;1.20;;;14.10;96.00;;;;;;5112756;28;20491;-64
2022/06/10 01:12:46;;;;;;;2.47;1.60;;;14.10;95.90;;;;;;5112077;28;20534;-65
2022/06/10 01:15:32;;;;;;;2.03;1.20;;;14.00;94.30;;;;;;5112523;28;20551;-65
2022/06/10 01:18:26;;;;;;;2.37;1.20;;;14.00;94.50;;;;;;5112095;28;20438;-65
2022/06/10 01:21:06;;;;;;;7.93;1.23;;;14.00;94.70;;;;;;5112149;28;20434;-65
2022/06/10 01:24:12;;;;;;;2.10;1.20;;;14.00;94.90;;;;;;5111960;28;20438;-68
2022/06/10 01:30:21;;;;;;;2.20;1.37;;;14.00;95.10;;;;;;5112226;28;20421;-65
2022/06/10 01:33:00;;;;;;;4.30;1.80;;;13.90;94.80;;;;;;5111931;28;20474;-65
2022/06/10 01:35:37;;;;;;;4.70;1.70;;;13.90;94.40;;;;;;5113275;28;20438;-65
2022/06/10 01:38:14;;;;;;;3.80;1.70;;;13.90;94.30;;;;;;5115674;28;20446;-64
2022/06/10 01:40:50;;;;;;;5.47;1.67;;;13.90;94.10;;;;;;5116001;28;20793;-64
2022/06/10 01:43:29;;;;;;;2.20;1.30;;;13.80;93.60;;;;;;5115666;28;20437;-65
2022/06/10 01:46:04;;;;;;;5.57;1.73;;;13.80;93.30;;;;;;5115820;28;20441;-65
2022/06/10 01:48:39;;;;;;;2.50;1.30;;;13.80;93.30;;;;;;5115190;28;20927;-65
2022/06/10 01:51:13;;;;;;;3.80;1.90;;;13.80;93.30;;;;;;5115736;28;20901;-65
2022/06/10 01:53:43;;;;;;;3.97;1.47;;;13.70;92.60;;;;;;5115093;28;20940;-65
2022/06/10 01:56:14;;;;;;;3.83;1.93;;;13.70;92.30;;;;;;5115580;28;20446;-64
2022/06/10 01:58:46;;;;;;;2.43;1.90;;;13.70;92.50;;;;;;5115372;28;20522;-65
2022/06/10 02:01:18;;;;;;;2.57;1.27;;;13.60;92.60;;;;;;5115636;28;20434;-65
2022/06/10 02:03:51;;;;;;;2.90;1.57;;;13.60;92.70;;;;;;5114907;28;20944;-65
2022/06/10 02:06:25;;;;;;;2.77;1.20;;;13.60;92.70;;;;;;5115323;28;20498;-65
2022/06/10 02:08:56;;;;;;;3.47;1.70;;;13.50;92.60;;;;;;5114856;28;20466;-65
2022/06/10 02:11:26;;;;;;;2.27;1.53;;;13.50;93.00;;;;;;5115511;28;20582;-65
2022/06/10 02:13:56;;;;;;;3.93;1.37;;;13.50;93.20;;;;;;5114624;28;20842;-65
2022/06/10 02:16:27;;;;;;;8.23;2.07;;;13.50;93.30;;;;;;5115257;28;20439;-64
2022/06/10 02:19:01;;;;;;;5.07;1.70;;;13.60;93.60;;;;;;5115185;28;20446;-66
2022/06/10 02:21:35;;;;;;;4.70;2.03;;;13.60;93.70;;;;;;5114845;28;20437;-64
2022/06/10 02:24:08;;;;;;;2.80;1.47;;;13.50;93.00;;;;;;5115112;28;20528;-64
2022/06/10 02:26:37;;;;;;;4.20;2.63;;;13.50;92.90;;;;;;5114713;28;20445;-65
2022/06/10 02:29:11;;;;;;;3.67;2.00;;;13.50;93.00;;;;;;5114783;28;20470;-66
2022/06/10 02:31:43;;;;;;;3.37;1.30;;;13.50;92.80;;;;;;5114067;28;20944;-65
2022/06/10 02:34:12;;;;;;;2.80;1.60;;;13.40;92.80;;;;;;5114756;27;20442;-65
2022/06/10 02:36:47;;;;;;;3.37;1.47;;;13.30;93.00;;;;;;5113506;28;20522;-64
2022/06/10 02:39:22;;;;;;;4.80;1.37;;;13.40;93.30;;;;;;5114670;28;20525;-69
2022/06/10 02:41:57;;;;;;;2.63;1.60;;;13.40;93.60;;;;;;5114682;28;20442;-64
2022/06/10 02:44:31;;;;;;;2.83;1.20;;;13.40;93.80;;;;;;5114296;28;20908;-65
2022/06/10 02:47:08;;;;;;;4.80;1.43;;;13.40;93.90;;;;;;5114683;28;20433;-65
2022/06/10 02:49:37;;;;;;;3.47;1.50;;;13.40;93.90;;;;;;5114131;27;20798;-65
2022/06/10 02:52:05;;;;;;;2.40;1.53;;;13.40;93.80;;;;;;5114535;28;20513;-65
2022/06/10 02:54:38;;;;;;;3.10;1.47;;;13.40;93.90;;;;;;5114183;28;20562;-65
2022/06/10 02:57:14;;;;;;;3.87;1.93;;;13.50;94.00;;;;;;5114655;28;20434;-65
2022/06/10 03:02:38;;;;;;;3.73;1.30;;;13.50;93.40;;;;;;5114523;28;20887;-65
2022/06/10 03:05:26;;;;;;;2.53;1.70;;;13.40;93.50;;;;;;5114238;28;20440;-65
2022/06/10 03:08:05;;;;;;;3.17;1.30;;;13.50;93.70;;;;;;5114191;28;20529;-65
2022/06/10 03:10:45;;;;;;;2.27;1.10;;;13.50;93.90;;;;;;5113919;28;20441;-65
2022/06/10 03:13:33;;;;;;;3.50;2.20;;;13.50;94.30;;;;;;5113964;28;20511;-65
2022/06/10 03:16:19;;;;;;;3.50;2.00;;;13.50;94.40;;;;;;5113863;28;20850;-65
2022/06/10 03:18:53;;;;;;;3.33;1.70;;;13.50;94.50;;;;;;5113875;28;20457;-65
2022/06/10 03:21:32;;;;;;;2.47;1.53;;;13.50;94.90;;;;;;5113514;28;20470;-64
2022/06/10 03:24:09;;;;;;;4.10;1.57;;;13.60;95.40;;;;;;5113908;28;20434;-65
2022/06/10 03:26:45;;;;;;;6.97;1.70;;;13.50;95.60;;;;;;5113495;28;20434;-65
2022/06/10 03:29:18;;;;;;;2.30;1.43;;;13.60;95.90;;;;;;5113733;28;20541;-65
2022/06/10 03:31:52;;;;;;;3.43;1.33;;;13.60;95.40;;;;;;5113380;28;20438;-65
2022/06/10 03:34:24;;;;;;;4.63;1.70;;;13.60;95.40;;;;;;5113530;28;20511;-65
2022/06/10 03:36:56;;;;;;;2.33;1.50;;;13.60;95.40;;;;;;5113447;28;20470;-64
2022/06/10 03:39:25;;;;;;;2.10;1.53;;;13.70;95.60;;;;;;5113567;28;20556;-65
2022/06/10 03:41:59;;;;;;;4.80;1.57;;;13.70;95.50;;;;;;5112876;28;20442;-65
2022/06/10 03:44:28;;;;;;;2.60;1.47;;;13.70;95.60;;;;;;5113968;28;20415;-64
2022/06/10 03:46:57;;;;;;;3.33;1.87;;;13.70;95.90;;;;;;5113192;28;20437;-65
2022/06/10 03:49:31;;;;;;;3.37;2.17;;;13.70;96.20;;;;;;5113318;27;20556;-65
2022/06/10 03:52:02;;;;;;;5.60;1.40;;;13.80;96.40;;;;;;5112839;28;20465;-64
2022/06/10 03:54:29;;;;;;;2.67;1.47;;;13.80;96.60;;;;;;5113205;28;20438;-65
2022/06/10 03:56:56;;;;;;;4.77;2.27;;;13.80;96.50;;;;;;5112861;28;20901;-65
2022/06/10 03:59:23;;;;;;;4.60;1.37;;;13.80;96.50;;;;;;5112862;28;20525;-65
2022/06/10 04:01:50;;;;;;;2.37;1.20;;;13.80;96.40;;;;;;5112697;28;20434;-64
2022/06/10 04:04:17;;;;;;;3.30;1.50;;;13.80;96.40;;;;;;5113369;28;20477;-65
2022/06/10 04:06:44;;;;;;;2.90;1.53;;;13.90;96.30;;;;;;5112929;28;20483;-65
2022/06/10 04:09:14;;;;;;;1.97;1.37;;;13.90;96.10;;;;;;5113495;28;20860;-65
2022/06/10 04:11:41;;;;;;;5.40;1.63;;;13.90;96.00;;;;;;5113101;28;20442;-65
2022/06/10 04:14:08;;;;;;;6.00;1.80;;;13.90;96.00;;;;;;5112528;28;21283;-65
2022/06/10 04:16:36;;;;;;;3.30;2.73;;;13.90;96.00;;;;;;5113371;28;20521;-65
2022/06/10 04:19:03;;;;;;;3.57;1.33;;;13.90;96.00;;;;;;5112983;28;20433;-65
2022/06/10 04:21:30;;;;;;;5.67;1.40;;;14.00;96.10;;;;;;5113205;28;20442;-66
2022/06/10 04:23:57;;;;;;;4.70;1.97;;;13.90;96.10;;;;;;5113038;28;20438;-65
2022/06/10 04:26:26;;;;;;;4.77;1.53;;;14.00;96.30;;;;;;5113023;28;20438;-65
2022/06/10 04:28:53;;;;;;;2.63;1.90;;;14.00;96.30;;;;;;5112648;28;20648;-65
2022/06/10 04:31:20;;;;;;;5.70;1.60;;;14.00;96.00;;;;;;5112890;28;20434;-65
2022/06/10 04:33:48;;;;;;;3.87;1.80;;;14.00;95.50;;;;;;5112839;28;20530;-65
2022/06/10 04:36:17;;;;;;;2.93;1.67;;;14.00;94.90;;;;;;5112503;28;20438;-65
2022/06/10 04:38:45;;;;;;;2.70;1.53;;;14.10;94.80;;;;;;5113047;28;20442;-65
2022/06/10 04:41:13;;;;;;;6.07;1.40;;;14.00;94.40;;;;;;5112577;28;20446;-65
2022/06/10 04:43:42;;;;;;;2.63;1.47;;;14.10;94.40;;;;;;5112835;28;20439;-65
2022/06/10 04:46:14;;;;;;;2.70;1.60;;;14.10;94.30;;;;;;5112588;28;20441;-65
2022/06/10 04:48:41;;;;;;;2.47;1.60;;;14.10;94.60;;;;;;5112973;28;20872;-65
2022/06/10 04:51:08;;;;;;;4.13;1.40;;;14.20;95.00;;;;;;5112700;28;20490;-65
2022/06/10 04:53:35;;;;;;;3.53;1.43;;;14.20;95.20;;;;;;5112883;28;20991;-65
2022/06/10 04:56:02;;;;;;;3.07;1.50;;;14.30;95.50;;;;;;5112490;28;20438;-65
2022/06/10 04:58:29;;;;;;;2.77;1.67;;;14.30;95.50;;;;;;5112904;28;20495;-65
2022/06/10 05:00:58;;;;;;;3.80;1.80;;;14.30;95.40;;;;;;5112402;28;20426;-64
2022/06/10 05:03:25;;;;;;;3.40;1.77;;;14.30;95.30;;;;;;5112436;28;20426;-65
2022/06/10 05:05:52;;;;;;;3.73;1.33;;;14.40;95.50;;;;;;5112295;28;20473;-65
2022/06/10 05:08:19;;;;;;;2.33;1.20;;;14.50;95.60;;;;;;5112620;28;20995;-65
2022/06/10 05:10:47;;;;;;;3.83;1.27;;;14.50;94.40;;;;;;5113907;28;20932;-65
2022/06/10 05:13:16;;;;;;;3.77;1.83;;;14.50;93.70;;;;;;5116585;28;21058;-65
2022/06/10 05:15:43;;;;;;;2.70;1.30;;;14.50;93.30;;;;;;5116157;28;20512;-65
2022/06/10 05:18:15;;;;;;;4.13;2.03;;;14.50;93.20;;;;;;5116653;28;20434;-65
2022/06/10 05:20:44;;;;;;;4.40;2.00;;;14.50;93.20;;;;;;5116228;27;20513;-65
2022/06/10 05:23:15;;;;;;;3.80;2.27;;;14.60;93.30;;;;;;5116598;28;20569;-65
2022/06/10 05:25:43;;;;;;;2.83;1.70;;;14.60;92.60;;;;;;5115884;28;20430;-65
2022/06/10 05:28:11;;;;;;;3.10;1.87;;;14.70;92.30;;;;;;5116258;28;20458;-65
2022/06/10 05:30:39;;;;;;;3.37;2.00;;;14.70;92.40;;;;;;5115862;28;20513;-65
2022/06/10 05:33:09;;;;;;;4.23;2.60;;;14.80;92.30;;;;;;5116268;28;20996;-65
2022/06/10 05:35:38;;;;;;;2.47;1.40;;;15.00;92.60;;;;;;5115890;28;20812;-66
2022/06/10 05:38:06;;;;;;;3.90;1.50;;;15.10;91.80;;;;;;5115993;28;20437;-65
2022/06/10 05:40:34;;;;;;;4.63;1.10;;;15.20;92.00;;;;;;5115643;28;20913;-65
2022/06/10 05:43:02;;;;;;;3.90;1.33;;;15.30;91.80;;;;;;5116412;28;20434;-65
2022/06/10 05:45:30;;;;;;;1.80;0.90;;;15.40;92.10;;;;;;5115761;28;20481;-65
2022/06/10 05:48:00;;;;;;;2.27;1.00;;;15.50;91.50;;;;;;5116111;28;20438;-65
2022/06/10 05:50:29;;;;;;;3.27;1.37;;;15.70;90.40;;;;;;5115051;28;20966;-65
2022/06/10 05:52:58;;;;;;;3.70;1.00;;;15.80;89.80;;;;;;5115442;28;20489;-65
2022/06/10 05:55:26;;;;;;;3.67;1.30;;;15.90;90.60;;;;;;5115988;28;20442;-65
2022/06/10 05:57:53;;;;;;;3.57;1.20;;;16.00;88.10;;;;;;5115692;28;20438;-65
2022/06/10 06:00:23;;;;;;;2.70;1.40;;;16.10;89.20;;;;;;5116268;28;20871;-65
2022/06/10 06:02:50;;;;;;;3.00;1.40;;;16.20;88.10;;;;;;5116144;28;20457;-65
2022/06/10 06:05:18;;;;;;;2.07;1.30;;;16.40;86.70;;;;;;5114295;28;20491;-65
2022/06/10 06:07:45;;;;;;;2.93;1.50;;;16.50;86.40;;;;;;5115896;28;20432;-65
2022/06/10 06:10:15;;;;;;;2.83;1.30;;;16.40;85.10;;;;;;5115508;28;21038;-65
2022/06/10 06:12:43;;;;;;;2.77;0.83;;;16.40;85.50;;;;;;5115792;28;20556;-65
2022/06/10 06:15:12;;;;;;;2.60;1.33;;;16.50;83.80;;;;;;5113090;27;20525;-66
2022/06/10 06:17:40;;;;;;;3.43;1.33;;;16.50;84.80;;;;;;5114855;28;20521;-65
2022/06/10 06:20:08;;;;;;;3.40;1.40;;;16.50;82.80;;;;;;5115216;28;20441;-65
2022/06/10 06:22:36;;;;;;;2.77;1.43;;;16.40;83.20;;;;;;5115183;28;20438;-65
2022/06/10 06:25:03;;;;;;;3.13;1.47;;;16.40;84.20;;;;;;5115003;28;20430;-66
2022/06/10 06:27:31;;;;;;;4.80;1.20;;;16.40;84.90;;;;;;5108270;28;20441;-66
2022/06/10 06:30:00;;;;;;;3.80;1.40;;;16.30;82.60;;;;;;5115107;28;20897;-65
2022/06/10 06:32:27;;;;;;;3.80;1.23;;;16.20;83.50;;;;;;5115644;28;20447;-65
2022/06/10 06:34:54;;;;;;;6.90;1.77;;;16.20;84.90;;;;;;5114590;28;20495;-65
2022/06/10 06:37:21;;;;;;;3.80;1.67;;;16.20;84.30;;;;;;5114367;28;20439;-65
2022/06/10 06:39:49;;;;;;;9.17;1.50;;;16.20;84.20;;;;;;5109339;28;20947;-65
2022/06/10 06:42:16;;;;;;;7.30;1.30;;;16.20;86.60;;;;;;5108065;28;20434;-64
2022/06/10 06:44:44;;;;;;;2.40;1.30;;;16.20;86.20;;;;;;5114604;28;20438;-65
2022/06/10 06:47:13;;;;;;;2.57;1.37;;;16.20;83.80;;;;;;5115105;28;20430;-65
2022/06/10 06:49:40;;;;;;;7.43;1.63;;;16.30;84.70;;;;;;5115230;28;20438;-65
2022/06/10 06:52:09;;;;;;;3.20;1.30;;;16.40;84.60;;;;;;5113576;28;20518;-65
2022/06/10 06:54:37;;;;;;;3.60;1.60;;;16.50;84.50;;;;;;5114170;28;20477;-65
2022/06/10 06:57:05;;;;;;;3.77;1.70;;;16.60;85.20;;;;;;5114776;28;20517;-65
2022/06/10 06:59:33;;;;;;;2.47;1.53;;;16.80;84.80;;;;;;5114518;28;20438;-65
2022/06/10 07:02:01;;;;;;;7.47;1.50;;;16.90;85.50;;;;;;5115173;28;20478;-65
2022/06/10 07:04:28;;;;;;;3.20;1.80;;;16.90;86.20;;;;;;5114997;28;20513;-66
2022/06/10 07:06:55;;;;;;;2.93;1.40;;;17.00;86.40;;;;;;5115135;28;20430;-65
2022/06/10 07:09:22;;;;;;;6.43;1.90;;;17.20;84.60;;;;;;5115079;28;20529;-65
2022/06/10 07:11:49;;;;;;;5.30;2.00;;;17.30;82.10;;;;;;5114923;28;20438;-66
2022/06/10 07:14:16;;;;;;;4.40;1.80;;;17.50;79.90;;;;;;5114790;28;20485;-65
2022/06/10 07:16:44;;;;;;;2.97;1.40;;;17.60;81.50;;;;;;5114736;28;20528;-65
2022/06/10 07:19:12;;;;;;;3.33;1.93;;;17.90;81.50;;;;;;5114695;28;20934;-65
2022/06/10 07:21:39;;;;;;;4.30;1.43;;;18.20;81.60;;;;;;5114759;28;20434;-65
2022/06/10 07:24:07;;;;;;;4.40;1.43;;;18.40;80.00;;;;;;5114429;28;20438;-65
2022/06/10 07:26:34;;;;;;;3.30;1.50;;;18.60;80.80;;;;;;5114287;28;20871;-65
2022/06/10 07:29:02;;;;;;;4.80;2.47;;;18.80;80.90;;;;;;5113989;28;20868;-66
2022/06/10 07:31:29;;;;;;;5.10;2.00;;;19.00;81.50;;;;;;5114504;28;20441;-65
2022/06/10 07:33:57;;;;;;;3.87;2.00;;;19.30;80.00;;;;;;5113758;28;20811;-65
2022/06/10 07:36:26;;;;;;;5.30;1.60;;;19.40;78.30;;;;;;5114130;28;20439;-65
2022/06/10 07:38:53;;;;;;;3.47;1.70;;;19.60;79.30;;;;;;5114142;28;20434;-65
2022/06/10 07:44:01;;;;;;;5.70;1.93;;;19.80;75.70;;;;;;5100971;28;20424;-66
2022/06/10 07:46:28;;;;;;;5.50;1.70;;;19.90;76.30;;;;;;5114023;28;20438;-65
2022/06/10 07:48:55;;;;;;;5.67;2.00;;;20.00;77.80;;;;;;5113780;28;20442;-65
2022/06/10 07:51:23;;;;;;;3.30;1.70;;;20.10;79.10;;;;;;5114214;28;20442;-66
2022/06/10 07:53:51;;;;;;;5.10;2.97;;;20.10;78.10;;;;;;5114108;28;20481;-65
2022/06/10 07:56:20;;;;;;;3.80;1.40;;;20.30;77.40;;;;;;5113873;28;20434;-65
2022/06/10 07:58:48;;;;;;;4.73;1.80;;;20.40;76.10;;;;;;5113751;28;20481;-65
2022/06/10 08:01:15;;;;;;;8.80;2.13;;;20.50;72.70;;;;;;5114107;28;20441;-65
2022/06/10 08:03:42;;;;;;;4.77;2.10;;;20.70;73.40;;;;;;5113657;28;20529;-65
2022/06/10 08:06:10;;;;;;;4.70;1.90;;;21.00;74.10;;;;;;5113685;28;20438;-66
2022/06/10 08:08:37;;;;;;;4.40;2.30;;;21.20;71.90;;;;;;5113848;28;20519;-65
2022/06/10 08:11:06;;;;;;;5.53;2.00;;;21.40;73.50;;;;;;5113428;28;20924;-66
2022/06/10 08:13:32;;;;;;;3.63;1.53;;;21.70;74.20;;;;;;5113767;28;20483;-66
2022/06/10 08:16:00;;;;;;;4.00;1.80;;;21.90;71.10;;;;;;5113888;28;20442;-65
2022/06/10 08:18:31;;;;;;;4.80;1.83;;;22.00;69.60;;;;;;5113832;28;20523;-66
2022/06/10 08:23:44;;;;;;;5.20;2.07;;;22.10;64.30;;;;;;5113874;28;20429;-65
2022/06/10 08:26:13;;;;;;;7.43;2.87;;;22.10;65.50;;;;;;5113689;28;20438;-65
2022/06/10 08:28:42;;;;;;;5.00;2.00;;;22.20;63.50;;;;;;5113393;28;20559;-66
2022/06/10 08:31:10;;;;;;;6.77;2.20;;;22.50;63.90;;;;;;5113656;28;20430;-65
2022/06/10 08:33:37;;;;;;;3.70;1.77;;;22.70;63.10;;;;;;5113557;28;20514;-66
2022/06/10 08:36:05;;;;;;;8.77;2.60;;;22.80;60.90;;;;;;5113111;28;20439;-66
2022/06/10 08:38:33;;;;;;;6.73;3.00;;;22.80;60.30;;;;;;5113420;28;20492;-66
2022/06/10 08:41:06;;;;;;;4.70;2.10;;;22.70;56.00;;;;;;5113308;28;20454;-67
2022/06/10 08:43:43;;;;;;;3.20;2.30;;;22.70;56.90;;;;;;5113578;28;20536;-66
2022/06/10 08:46:28;;;;;;;4.27;2.00;;;22.70;57.60;;;;;;5117698;28;20465;-65
2022/06/10 08:49:28;;;;;;;7.43;2.20;;;22.70;55.90;;;;;;5117829;28;20989;-65
2022/06/10 08:52:01;;;;;;;4.17;1.97;;;22.60;56.10;;;;;;5117842;28;21010;-66
2022/06/10 08:54:36;;;;;;;3.70;2.30;;;22.80;56.10;;;;;;5117767;28;20486;-65
2022/06/10 08:57:14;;;;;;;4.13;2.50;;;22.80;55.00;;;;;;5117596;28;20469;-65
2022/06/10 08:59:46;;;;;;;2.63;1.57;;;22.80;52.30;;;;;;5117479;28;20438;-65
2022/06/10 09:02:25;;;;;;;5.40;2.33;;;22.80;50.60;;;;;;5117555;28;20474;-66
2022/06/10 09:04:58;;;;;;;5.53;2.90;;;22.90;53.00;;;;;;5117085;28;20915;-65
2022/06/10 09:07:31;;;;;;;4.17;1.90;;;23.00;54.60;;;;;;5117493;28;20439;-66
2022/06/10 09:09:59;;;;;;;4.07;2.03;;;23.00;54.20;;;;;;5116809;28;20426;-65
2022/06/10 09:12:34;;;;;;;6.40;2.60;;;23.00;52.20;;;;;;5117164;28;20842;-65
2022/06/10 09:15:05;;;;;;;4.40;2.27;;;22.80;54.20;;;;;;5117265;28;20488;-66
2022/06/10 09:17:37;;;;;;;4.60;3.10;;;22.70;54.90;;;;;;5117095;28;20518;-66
2022/06/10 09:20:15;;;;;;;6.77;3.20;;;22.50;53.90;;;;;;5117112;28;20472;-65
2022/06/10 09:22:49;;;;;;;5.53;3.10;;;22.30;53.00;;;;;;5117239;28;20830;-65
2022/06/10 09:25:23;;;;;;;4.83;2.80;;;22.30;54.10;;;;;;5116986;28;20434;-66
2022/06/10 09:27:57;;;;;;;4.63;2.17;;;22.50;55.90;;;;;;5116933;28;20827;-66
2022/06/10 09:30:31;;;;;;;3.20;1.97;;;22.70;54.00;;;;;;5116877;28;20434;-65
2022/06/10 09:33:04;;;;;;;7.80;2.37;;;22.70;54.70;;;;;;5116809;28;20906;-65
2022/06/10 09:35:38;;;;;;;3.83;2.13;;;22.70;55.20;;;;;;5116607;28;20818;-66
2022/06/10 09:38:11;;;;;;;5.00;2.30;;;22.60;53.40;;;;;;5116807;28;20948;-65
2022/06/10 09:40:39;;;;;;;4.37;2.90;;;22.50;53.10;;;;;;5116781;28;20441;-66
2022/06/10 09:43:30;;;;;;;4.70;2.47;;;22.30;53.70;;;;;;5116630;28;20441;-66
2022/06/10 09:46:11;;;;;;;3.90;2.40;;;22.20;55.00;;;;;;5102798;28;20442;-65
2022/06/10 09:48:50;;;;;;;5.87;2.60;;;22.00;53.50;;;;;;5116797;27;20432;-65
2022/06/10 09:51:25;;;;;;;8.60;2.50;;;21.80;54.90;;;;;;5116313;28;20483;-65
2022/06/10 09:54:05;;;;;;;4.87;2.77;;;21.70;55.40;;;;;;5116555;28;20489;-65
2022/06/10 09:56:49;;;;;;;3.50;1.87;;;21.40;55.80;;;;;;5115479;28;20426;-65
2022/06/10 09:59:27;;;;;;;3.97;2.20;;;21.30;55.40;;;;;;5116334;28;20473;-65
2022/06/10 10:02:04;;;;;;;3.57;2.27;;;21.10;56.20;;;;;;5116271;28;20811;-65
2022/06/10 10:04:54;;;;;;;2.90;2.10;;;20.90;55.30;;;;;;5116038;28;20437;-65
2022/06/10 10:07:31;;;;;;;2.93;2.30;;;20.80;56.70;;;;;;5113813;28;20442;-65
2022/06/10 10:10:12;;;;;;;3.20;2.13;;;20.80;57.20;;;;;;5116362;28;20429;-65
2022/06/10 10:12:45;;;;;;;2.70;1.90;;;20.70;58.40;;;;;;5116088;28;20946;-65
2022/06/10 10:15:25;;;;;;;3.60;2.10;;;20.70;59.70;;;;;;5116008;28;20480;-65
2022/06/10 10:18:21;;;;;;;7.63;2.57;;;20.90;59.40;;;;;;5115893;28;20507;-65
2022/06/10 10:21:11;;;;;;;6.60;2.53;;;21.40;58.70;;;;;;5115434;28;20488;-65
2022/06/10 10:23:42;;;;;;;4.80;2.00;;;21.80;56.90;;;;;;5115726;28;20435;-66
2022/06/10 10:26:19;;;;;;;5.70;2.23;;;22.30;58.20;;;;;;5115679;28;20546;-66
2022/06/10 10:28:48;;;;;;;2.83;1.70;;;22.60;57.00;;;;;;5115783;28;20473;-65
2022/06/10 10:31:20;;;;;;;5.30;2.07;;;23.00;54.70;;;;;;5115557;28;20871;-67
2022/06/10 10:33:49;;;;;;;3.77;1.97;;;23.20;55.00;;;;;;5115800;28;20427;-65
2022/06/10 10:36:25;;;;;;;3.60;2.00;;;23.30;52.00;;;;;;5115415;28;20467;-65
2022/06/10 10:38:53;;;;;;;4.30;1.90;;;23.50;51.50;;;;;;5115023;28;20866;-65
2022/06/10 10:41:30;;;;;;;5.67;2.77;;;23.70;52.80;;;;;;5115570;28;20449;-65
2022/06/10 10:44:11;;;;;;;5.57;1.87;;;23.90;53.40;;;;;;5115753;28;20951;-66
2022/06/10 10:46:42;;;;;;;3.67;2.00;;;24.20;53.30;;;;;;5115273;28;20436;-65
2022/06/10 10:49:24;;;;;;;4.40;1.63;;;24.20;49.30;;;;;;5115278;28;20435;-66
2022/06/10 10:51:52;;;;;;;4.00;1.50;;;24.20;48.70;;;;;;5115375;28;20915;-66
2022/06/10 10:54:23;;;;;;;3.83;1.90;;;24.10;48.20;;;;;;5115195;28;20561;-65
2022/06/10 10:56:51;;;;;;;6.67;2.60;;;24.00;50.40;;;;;;5114825;28;20430;-67
2022/06/10 10:59:35;;;;;;;4.93;2.33;;;23.90;49.50;;;;;;5115040;28;20872;-66
2022/06/10 11:02:24;;;;;;;3.63;2.30;;;23.70;50.50;;;;;;5114796;28;20739;-66
2022/06/10 11:05:04;;;;;;;6.90;2.33;;;23.70;50.20;;;;;;5114969;28;20445;-65
2022/06/10 11:07:31;;;;;;;4.33;2.07;;;23.60;50.30;;;;;;5113803;28;20447;-66
2022/06/10 11:10:08;;;;;;;4.30;1.73;;;23.60;48.00;;;;;;5114565;28;20450;-65
2022/06/10 11:12:35;;;;;;;5.50;2.73;;;23.60;49.30;;;;;;5114595;28;20464;-66
2022/06/10 11:15:12;;;;;;;4.57;1.70;;;23.90;48.30;;;;;;5113881;28;20476;-71
2022/06/10 11:17:44;;;;;;;3.33;2.10;;;24.10;49.40;;;;;;5094064;28;20525;-66
2022/06/10 11:20:25;;;;;;;2.30;1.37;;;24.40;49.40;;;;;;5104563;28;20444;-66
2022/06/10 11:23:11;;;;;;;5.00;2.30;;;24.90;50.50;;;;;;5114240;28;20524;-66
2022/06/10 11:25:38;;;;;;;3.13;1.50;;;25.30;48.30;;;;;;5113324;28;20521;-66
2022/06/10 11:28:18;;;;;;;5.07;1.63;;;25.60;47.10;;;;;;5113630;28;20523;-66
2022/06/10 11:30:49;;;;;;;3.63;2.20;;;25.70;47.30;;;;;;5114607;28;20434;-66
2022/06/10 11:33:27;;;;;;;3.90;2.27;;;25.90;45.00;;;;;;5113760;28;20430;-66
2022/06/10 11:36:11;;;;;;;4.60;2.57;;;25.80;44.70;;;;;;5114362;28;20500;-66
2022/06/10 11:38:51;;;;;;;3.80;2.73;;;25.90;44.10;;;;;;5113528;28;20886;-66
2022/06/10 11:41:28;;;;;;;3.27;1.90;;;26.00;44.90;;;;;;5114465;28;20433;-66
2022/06/10 11:44:02;;;;;;;4.50;1.80;;;26.20;44.70;;;;;;5113614;28;20517;-65
2022/06/10 11:46:44;;;;;;;6.03;2.77;;;26.20;44.00;;;;;;5114016;28;20453;-66
2022/06/10 11:49:18;;;;;;;3.90;2.27;;;26.40;45.00;;;;;;5113576;28;20438;-66
2022/06/10 11:51:52;;;;;;;6.50;1.50;;;26.40;43.10;;;;;;5114171;28;20517;-67
2022/06/10 11:54:29;;;;;;;3.00;2.00;;;26.50;42.40;;;;;;5113092;28;20434;-66
2022/06/10 11:59:56;;;;;;;5.87;3.03;;;26.80;43.70;;;;;;5113276;28;20507;-66
2022/06/10 12:02:30;;;;;;;5.43;2.00;;;27.10;45.50;;;;;;5114061;28;20434;-66
2022/06/10 12:05:17;;;;;;;5.40;2.17;;;27.20;41.40;;;;;;5113798;28;20434;-66
2022/06/10 12:07:53;;;;;;;4.13;1.70;;;27.20;43.20;;;;;;5110597;28;20462;-68
2022/06/10 12:10:25;;;;;;;4.93;1.90;;;27.30;42.20;;;;;;5113739;28;20936;-66
2022/06/10 12:12:54;;;;;;;3.03;2.03;;;27.30;41.90;;;;;;5113834;28;20521;-66
2022/06/10 12:15:26;;;;;;;3.43;1.77;;;27.20;40.80;;;;;;5113696;28;20531;-66
2022/06/10 12:17:56;;;;;;;4.40;2.03;;;26.90;38.90;;;;;;5113742;28;21229;-66
2022/06/10 12:20:32;;;;;;;3.67;2.07;;;26.40;40.50;;;;;;5113335;28;20495;-66
2022/06/10 12:23:04;;;;;;;4.60;1.90;;;26.30;40.80;;;;;;5113818;28;20520;-67
2022/06/10 12:25:41;;;;;;;4.30;2.27;;;26.20;41.10;;;;;;5113508;28;20474;-66
2022/06/10 12:28:23;;;;;;;3.80;2.03;;;26.00;43.00;;;;;;5113374;28;20819;-66
2022/06/10 12:31:00;;;;;;;4.00;2.03;;;25.80;43.70;;;;;;5113318;28;20434;-65
2022/06/10 12:33:34;;;;;;;3.93;1.93;;;25.50;43.60;;;;;;5113729;28;20469;-66
2022/06/10 12:36:06;;;;;;;5.03;1.97;;;25.30;43.90;;;;;;5113548;28;20479;-66
2022/06/10 12:38:38;;;;;;;3.63;1.93;;;25.10;45.40;;;;;;5113790;28;20466;-66
2022/06/10 12:41:13;;;;;;;3.80;1.73;;;24.90;44.90;;;;;;5113289;28;20525;-65
2022/06/10 12:43:44;;;;;;;7.10;1.97;;;24.80;45.50;;;;;;5113352;28;20437;-66
2022/06/10 12:46:30;;;;;;;2.80;1.83;;;24.60;46.00;;;;;;5113417;28;20781;-66
2022/06/10 12:48:57;;;;;;;2.77;1.60;;;24.40;45.00;;;;;;5113658;28;20849;-65
2022/06/10 12:51:35;;;;;;;5.33;1.97;;;24.20;45.70;;;;;;5113517;28;20525;-66
2022/06/10 12:54:16;;;;;;;3.70;2.10;;;24.10;46.10;;;;;;5113740;28;20437;-65
2022/06/10 12:56:43;;;;;;;7.77;3.60;;;23.90;45.90;;;;;;5113054;28;20570;-66
2022/06/10 12:59:24;;;;;;;5.67;2.40;;;23.90;46.50;;;;;;5113316;28;20487;-65
2022/06/10 13:01:52;;;;;;;3.20;1.67;;;23.80;46.10;;;;;;5113207;28;20441;-65
2022/06/10 13:04:53;;;;;;;3.20;1.67;;;23.60;46.20;;;;;;5113195;28;21006;-66
2022/06/10 13:07:30;;;;;;;2.57;1.80;;;23.50;48.00;;;;;;5113275;28;20440;-66
2022/06/10 13:10:42;;;;;;;4.00;2.30;;;23.60;46.60;;;;;;5113246;28;20497;-65
2022/06/10 13:13:17;;;;;;;3.20;1.67;;;23.70;46.90;;;;;;5113213;28;20503;-66
2022/06/10 13:15:45;;;;;;;3.60;2.10;;;23.70;49.70;;;;;;5113146;28;20577;-65
2022/06/10 13:18:30;;;;;;;4.80;1.90;;;23.60;46.70;;;;;;5113073;28;20477;-65
2022/06/10 13:21:06;;;;;;;4.47;1.77;;;23.60;47.90;;;;;;5113034;28;20429;-65
2022/06/10 13:23:48;;;;;;;5.40;2.13;;;23.70;48.00;;;;;;5113384;28;20528;-66
2022/06/10 13:26:19;;;;;;;2.97;1.97;;;23.70;49.40;;;;;;5113091;28;20842;-65
2022/06/10 13:28:47;;;;;;;5.40;2.00;;;23.60;49.10;;;;;;5112987;28;20472;-65